Hyundai Hongkong — 5BZL3 — position and weather

sailwx.info

Track history (hours):
 
Tides and Currents Weather Stations Pressure Air Temp Water Temp Dewpoint Dewpoint Depression Visibility Wind Speed Wind Dir Waves Ship Positions

Hyundai Hongkong

Last reported at 2018-Feb-18 08:59 UTC. Time now 2018-Feb-18 09:11 UTC.
Position N 37°48' W 122°19'.

Length 304 m; draft 12.3 m.

Type: Cargo ship. MMSI: 212348000.

Date/timePositionNaut miles runAvg speedWind from/ knotsBaromVisibWave heightAir tempDewpointWater temp
2018-Feb-18 08:59N 37°48' W 122°19'0 0.0
2018-Feb-18 08:29N 37°48' W 122°19'0 0.0
2018-Feb-18 08:00N 37°48' W 122°19'0 0.0
2018-Feb-18 07:30N 37°48' W 122°19'0 0.0
2018-Feb-18 06:59N 37°48' W 122°19'0 0.0
2018-Feb-18 06:29N 37°48' W 122°19'0 0.0
2018-Feb-18 05:59N 37°48' W 122°19'0 0.0
2018-Feb-18 05:29N 37°48' W 122°19'0 0.0
2018-Feb-18 04:59N 37°48' W 122°19'0 0.0
2018-Feb-18 04:29N 37°48' W 122°19'0 0.0
2018-Feb-18 03:59N 37°48' W 122°19'0 0.0
2018-Feb-18 03:30N 37°48' W 122°19'0 0.0
2018-Feb-18 02:59N 37°48' W 122°19'0 0.0
2018-Feb-18 02:29N 37°48' W 122°19'0 0.0
2018-Feb-18 01:59N 37°48' W 122°19'0 0.0
2018-Feb-18 01:26N 37°48' W 122°19'0 0.0
2018-Feb-18 00:59N 37°48' W 122°19'0 0.0
2018-Feb-18 00:29N 37°48' W 122°19'0 0.0
2018-Feb-17 23:59N 37°48' W 122°19'0 0.0
2018-Feb-17 23:29N 37°48' W 122°19'0 0.0
2018-Feb-17 22:59N 37°48' W 122°19'0 0.0
2018-Feb-17 22:29N 37°48' W 122°19'0 0.0
2018-Feb-17 21:59N 37°48' W 122°19'0 0.0
2018-Feb-17 21:29N 37°48' W 122°19'0 0.0
2018-Feb-17 21:00N 37°48' W 122°19'0 0.0
2018-Feb-17 20:29N 37°48' W 122°19'0 0.0
2018-Feb-17 19:59N 37°48' W 122°19'0 0.0
2018-Feb-17 19:29N 37°48' W 122°19'0 0.0
2018-Feb-17 18:59N 37°48' W 122°19'0 0.0
2018-Feb-17 18:29N 37°48' W 122°19'0 0.0
2018-Feb-17 17:59N 37°48' W 122°19'0 0.0
2018-Feb-17 17:29N 37°48' W 122°19'0 0.0
2018-Feb-17 16:59N 37°48' W 122°19'0 0.0
2018-Feb-17 16:29N 37°48' W 122°19'0 0.0
2018-Feb-17 15:59N 37°48' W 122°19'0 0.0
2018-Feb-17 15:29N 37°48' W 122°19'0 0.0
2018-Feb-17 14:59N 37°48' W 122°19'0 0.0
2018-Feb-17 14:29N 37°48' W 122°19'0 0.0
2018-Feb-17 14:00N 37°48' W 122°19'2 3.6
2018-Feb-17 13:30N 37°48' W 122°22'611.9
2018-Feb-17 13:01N 37°49' W 122°29'815.1
2018-Feb-17 12:31N 37°46' W 122°38'5 9.7
2018-Feb-17 12:00N 37°41' W 122°40'510.1
2018-Feb-17 11:30N 37°36' W 122°40'611.0
2018-Feb-17 11:00N 37°31' W 122°39'816.3
2018-Feb-17 10:30N 37°23' W 122°39'917.8
2018-Feb-17 10:00N 37°14' W 122°40'917.5
2018-Feb-17 09:30N 37°05' W 122°38'918.1
2018-Feb-17 09:00N 36°57' W 122°34'918.3
2018-Feb-17 08:30N 36°48' W 122°30'918.2
2018-Feb-17 08:00N 36°40' W 122°25'918.2
2018-Feb-17 07:30N 36°32' W 122°21'917.9
2018-Feb-17 07:00N 36°23' W 122°16'917.9
2018-Feb-17 06:30N 36°15' W 122°12'917.9
2018-Feb-17 06:00N 36°07' W 122°07'918.0
2018-Feb-17 05:30N 35°59' W 122°01'918.0
2018-Feb-17 05:00N 35°52' W 121°55'1417.8
2018-Feb-17 04:14N 35°40' W 121°47'1518.2
2018-Feb-17 03:23N 35°27' W 121°37'718.0
2018-Feb-17 03:00N 35°21' W 121°32'917.6
2018-Feb-17 02:30N 35°14' W 121°27'917.6
2018-Feb-17 02:00N 35°06' W 121°21'917.5
2018-Feb-17 01:30N 34°59' W 121°16'917.8
2018-Feb-17 01:00N 34°51' W 121°10'917.9
2018-Feb-17 00:30N 34°43' W 121°04'918.0
2018-Feb-17 00:00N 34°36' W 120°58'917.7
2018-Feb-16 23:30N 34°28' W 120°53'917.3
2018-Feb-16 22:59N 34°24' W 120°43'917.7
2018-Feb-16 22:29N 34°22' W 120°33'918.0
2018-Feb-16 21:59N 34°20' W 120°22'918.0
2018-Feb-16 21:29N 34°17' W 120°12'918.7
2018-Feb-16 21:00N 34°15' W 120°01'1018.6
2018-Feb-16 20:29N 34°12' W 119°50'1018.7
2018-Feb-16 19:59N 34°10' W 119°39'919.1
2018-Feb-16 19:29N 34°07' W 119°28'1019.4
2018-Feb-16 18:57N 34°04' W 119°16'919.0
2018-Feb-16 18:30N 33°60' W 119°07'713.8
2018-Feb-16 17:59N 33°56' W 118°60'611.6
2018-Feb-16 17:30N 33°54' W 118°54'611.5
2018-Feb-16 17:00N 33°51' W 118°48'611.3
2018-Feb-16 16:30N 33°48' W 118°42'611.4
2018-Feb-16 15:59N 33°45' W 118°36'511.2
2018-Feb-16 15:30N 33°42' W 118°30'611.2
2018-Feb-16 15:00N 33°40' W 118°24'611.5
2018-Feb-16 14:30N 33°39' W 118°17'4 8.5
2018-Feb-16 13:59N 33°43' W 118°15'1 2.8
2018-Feb-16 13:30N 33°44' W 118°16'0 0.6
2018-Feb-16 12:58N 33°44' W 118°15'0 0.0
2018-Feb-16 12:28N 33°44' W 118°15'0 0.0
2018-Feb-16 11:58N 33°44' W 118°15'0 0.0
2018-Feb-16 11:28N 33°44' W 118°15'0 0.0
2018-Feb-16 10:55N 33°44' W 118°15'0 0.0
2018-Feb-16 10:28N 33°44' W 118°15'0 0.0
2018-Feb-16 09:58N 33°44' W 118°15'0 0.0
2018-Feb-16 09:28N 33°44' W 118°15'0 0.0
2018-Feb-16 08:58N 33°44' W 118°15'0 0.0
2018-Feb-16 08:28N 33°44' W 118°15'0 0.0
2018-Feb-16 07:58N 33°44' W 118°15'0 0.0
2018-Feb-16 07:28N 33°44' W 118°15'0 0.0
2018-Feb-16 06:58N 33°44' W 118°15'0 0.0
2018-Feb-16 06:28N 33°44' W 118°15'0 0.0
2018-Feb-16 05:58N 33°44' W 118°15'0 0.0
2018-Feb-16 05:28N 33°44' W 118°15'0 0.0
2018-Feb-16 04:55N 33°44' W 118°15'0 0.0
2018-Feb-16 04:28N 33°44' W 118°15'0 0.0
2018-Feb-16 03:58N 33°44' W 118°15'0 0.0
2018-Feb-16 03:28N 33°44' W 118°15'0 0.0
2018-Feb-16 02:58N 33°44' W 118°15'0 0.0
2018-Feb-16 02:28N 33°44' W 118°15'0 0.0
2018-Feb-16 01:58N 33°44' W 118°15'0 0.0
2018-Feb-16 01:28N 33°44' W 118°15'0 0.0
2018-Feb-16 00:58N 33°44' W 118°15'0 0.0
2018-Feb-16 00:28N 33°44' W 118°15'0 0.0
2018-Feb-15 23:58N 33°44' W 118°15'0 0.0
2018-Feb-15 23:28N 33°44' W 118°15'0 0.0
2018-Feb-15 22:58N 33°44' W 118°15'0 0.0
2018-Feb-15 22:28N 33°44' W 118°15'0 0.0
2018-Feb-15 21:58N 33°44' W 118°15'0 0.0
2018-Feb-15 21:28N 33°44' W 118°15'0 0.0
2018-Feb-15 20:58N 33°44' W 118°15'0 0.0
2018-Feb-15 20:28N 33°44' W 118°15'0 0.0
2018-Feb-15 19:55N 33°44' W 118°15'0 0.0
2018-Feb-15 19:28N 33°44' W 118°15'0 0.0
2018-Feb-15 18:58N 33°44' W 118°15'0 0.0
2018-Feb-15 18:28N 33°44' W 118°15'0 0.0
2018-Feb-15 17:58N 33°44' W 118°15'0 0.0
2018-Feb-15 17:28N 33°44' W 118°15'0 0.0
2018-Feb-15 16:58N 33°44' W 118°15'0 0.0
2018-Feb-15 16:25N 33°44' W 118°15'0 0.0
2018-Feb-15 15:55N 33°44' W 118°15'0 0.0
2018-Feb-15 15:28N 33°44' W 118°15'0 0.0
2018-Feb-15 14:58N 33°44' W 118°15'0 0.0
2018-Feb-15 14:28N 33°44' W 118°15'0 0.0
2018-Feb-15 13:58N 33°44' W 118°15'0 0.0
2018-Feb-15 13:28N 33°44' W 118°15'0 0.0
2018-Feb-15 12:58N 33°44' W 118°15'0 0.0
2018-Feb-15 12:28N 33°44' W 118°15'0 0.0
2018-Feb-15 11:52N 33°44' W 118°15'0 0.0
2018-Feb-15 11:28N 33°44' W 118°15'0 0.0
2018-Feb-15 10:58N 33°44' W 118°15'0 0.0
2018-Feb-15 10:28N 33°44' W 118°15'0 0.0
2018-Feb-15 09:58N 33°44' W 118°15'0 0.0
2018-Feb-15 09:28N 33°44' W 118°15'0 0.0
2018-Feb-15 08:58N 33°44' W 118°15'0 0.0
2018-Feb-15 08:28N 33°44' W 118°15'0 0.0
2018-Feb-15 07:55N 33°44' W 118°15'0 0.0
2018-Feb-15 07:28N 33°44' W 118°15'0 0.0
2018-Feb-15 06:58N 33°44' W 118°15'0 0.0
2018-Feb-15 06:25N 33°44' W 118°15'0 0.0
2018-Feb-15 05:58N 33°44' W 118°15'0 0.0
2018-Feb-15 05:28N 33°44' W 118°15'0 0.0
2018-Feb-15 04:55N 33°44' W 118°15'0 0.0
2018-Feb-15 04:28N 33°44' W 118°15'0 0.0
2018-Feb-15 03:58N 33°44' W 118°15'0 0.0
2018-Feb-15 03:25N 33°44' W 118°15'0 0.0
2018-Feb-15 02:58N 33°44' W 118°15'0 0.0
2018-Feb-15 02:28N 33°44' W 118°15'0 0.0
2018-Feb-15 01:58N 33°44' W 118°15'0 0.0
2018-Feb-15 01:25N 33°44' W 118°15'0 0.0
2018-Feb-15 00:58N 33°44' W 118°15'0 0.0
2018-Feb-15 00:28N 33°44' W 118°15'0 0.0
2018-Feb-14 23:58N 33°44' W 118°15'0 0.0
2018-Feb-14 23:25N 33°44' W 118°15'0 0.0
2018-Feb-14 22:58N 33°44' W 118°15'0 0.0
2018-Feb-14 22:28N 33°44' W 118°15'0 0.0
2018-Feb-14 21:58N 33°44' W 118°15'0 0.0
2018-Feb-14 21:28N 33°44' W 118°15'0 0.0
2018-Feb-14 20:58N 33°44' W 118°15'0 0.0
2018-Feb-14 20:28N 33°44' W 118°15'0 0.0
2018-Feb-14 19:58N 33°44' W 118°15'0 0.0
2018-Feb-14 19:28N 33°44' W 118°15'0 0.0
2018-Feb-14 18:58N 33°44' W 118°15'0 0.0
2018-Feb-14 18:28N 33°44' W 118°15'0 0.0
2018-Feb-14 17:55N 33°44' W 118°15'0 0.0
2018-Feb-14 17:28N 33°44' W 118°15'0 0.0
2018-Feb-14 16:58N 33°44' W 118°15'0 0.0
2018-Feb-14 16:28N 33°44' W 118°15'0 0.0
2018-Feb-14 15:58N 33°44' W 118°15'0 0.0
2018-Feb-14 15:28N 33°44' W 118°15'0 0.0
2018-Feb-14 14:58N 33°44' W 118°15'0 0.0
2018-Feb-14 14:28N 33°44' W 118°15'0 0.0
2018-Feb-14 13:58N 33°44' W 118°15'0 0.0
2018-Feb-14 13:28N 33°44' W 118°15'0 0.0
2018-Feb-14 12:58N 33°44' W 118°15'0 0.1
2018-Feb-14 12:28N 33°44' W 118°15'0 0.1
2018-Feb-14 11:58N 33°44' W 118°15'0 0.0
2018-Feb-14 11:28N 33°44' W 118°15'0 0.0
2018-Feb-14 10:58N 33°44' W 118°15'0 0.0
2018-Feb-14 10:28N 33°44' W 118°15'0 0.0
2018-Feb-14 09:58N 33°44' W 118°15'0 0.0
2018-Feb-14 09:28N 33°44' W 118°15'0 0.0
2018-Feb-14 08:58N 33°44' W 118°15'0 0.0
2018-Feb-14 08:28N 33°44' W 118°15'0 0.0
2018-Feb-14 07:58N 33°44' W 118°15'0 0.0
2018-Feb-14 07:28N 33°44' W 118°15'0 0.0
2018-Feb-14 06:58N 33°44' W 118°15'0 0.0
2018-Feb-14 06:28N 33°44' W 118°15'0 0.0
2018-Feb-14 05:58N 33°44' W 118°15'0 0.0
2018-Feb-14 05:25N 33°44' W 118°15'0 0.0
2018-Feb-14 04:58N 33°44' W 118°15'0 0.0
2018-Feb-14 04:28N 33°44' W 118°15'0 0.0
2018-Feb-14 03:58N 33°44' W 118°15'0 0.0
2018-Feb-14 03:28N 33°44' W 118°15'0 0.1
2018-Feb-14 02:58N 33°44' W 118°15'0 0.1
2018-Feb-14 02:28N 33°44' W 118°15'0 0.0
2018-Feb-14 01:58N 33°44' W 118°15'0 0.0
2018-Feb-14 01:28N 33°44' W 118°15'0 0.0
2018-Feb-14 00:58N 33°44' W 118°15'0 0.0
2018-Feb-14 00:25N 33°44' W 118°15'0 0.0
2018-Feb-13 23:58N 33°44' W 118°15'0 0.0
2018-Feb-13 23:28N 33°44' W 118°15'0 0.0
2018-Feb-13 22:58N 33°44' W 118°15'0 0.0
2018-Feb-13 22:28N 33°44' W 118°15'0 0.0
2018-Feb-13 21:58N 33°44' W 118°15'0 0.0
2018-Feb-13 21:28N 33°44' W 118°15'0 0.0
2018-Feb-13 20:55N 33°44' W 118°15'0 0.0
2018-Feb-13 20:28N 33°44' W 118°15'0 0.0
2018-Feb-13 19:58N 33°44' W 118°15'0 0.0
2018-Feb-13 19:28N 33°44' W 118°15'0 0.0
2018-Feb-13 18:58N 33°44' W 118°15'0 0.0
2018-Feb-13 18:28N 33°44' W 118°15'0 0.0
2018-Feb-13 17:58N 33°44' W 118°15'0 0.0
2018-Feb-13 17:28N 33°44' W 118°15'0 0.0
2018-Feb-13 16:58N 33°44' W 118°15'0 0.0
2018-Feb-13 16:25N 33°44' W 118°15'0 0.0
2018-Feb-13 15:58N 33°44' W 118°15'0 0.0
2018-Feb-13 15:28N 33°44' W 118°15'0 0.1
2018-Feb-13 14:58N 33°44' W 118°15'0 0.1
2018-Feb-13 14:28N 33°44' W 118°15'0 0.0
2018-Feb-13 13:58N 33°44' W 118°15'0 0.0
2018-Feb-13 13:28N 33°44' W 118°15'0 0.0
2018-Feb-13 12:58N 33°44' W 118°15'0 0.1
2018-Feb-13 12:30N 33°44' W 118°15'3 6.3
2018-Feb-13 12:00N 33°41' W 118°14'3 7.0
2018-Feb-13 11:30N 33°37' W 118°13'4 7.7
2018-Feb-13 11:00N 33°36' W 118°17'1110.8
2018-Feb-13 10:00N 33°40' W 118°29'611.0
2018-Feb-13 09:30N 33°43' W 118°35'611.3
2018-Feb-13 09:00N 33°46' W 118°41'611.3
2018-Feb-13 08:30N 33°49' W 118°47'611.2
2018-Feb-13 08:00N 33°51' W 118°53'611.2
2018-Feb-13 07:30N 33°54' W 118°59'611.2
2018-Feb-13 07:00N 33°57' W 119°04'611.0
2018-Feb-13 06:30N 33°59' W 119°10'611.1
2018-Feb-13 05:58N 34°02' W 119°17'611.2
2018-Feb-13 05:29N 34°03' W 119°23'611.4
2018-Feb-13 05:00N 34°05' W 119°30'1011.4
2018-Feb-13 04:06N 34°08' W 119°41'211.7
2018-Feb-13 03:55N 34°08' W 119°44'511.9
2018-Feb-13 03:28N 34°10' W 119°50'611.6
2018-Feb-13 02:58N 34°11' W 119°57'612.0
2018-Feb-13 02:30N 34°12' W 120°04'713.5
2018-Feb-13 01:59N 34°14' W 120°12'815.9
2018-Feb-13 01:28N 34°17' W 120°21'816.2
2018-Feb-13 01:00N 34°19' W 120°30'816.0
2018-Feb-13 00:30N 34°21' W 120°39'815.7
2018-Feb-13 00:00N 34°23' W 120°48'816.0
2018-Feb-12 23:30N 34°25' W 120°58'816.2
2018-Feb-12 23:01N 34°26' W 121°07'815.2
2018-Feb-12 22:30N 34°26' W 121°17'1 2.3
2018-Feb-12 22:01N 34°25' W 121°18'612.8
2018-Feb-12 21:30N 34°26' W 121°26'1020.1
2018-Feb-12 21:01N 34°26' W 121°38'1020.3
2018-Feb-12 20:31N 34°26' W 121°50'  
2018-Feb-09 21:00N 45°12' W 150°12'46320.1 320 / 161019.0 9.0 8.0
2018-Feb-08 22:00N 47°24' W 160°54'503503.0 320 / 161011.0 5.4 6.0 5.0
2018-Feb-08 21:00N 48°36' W 173°18'   230 / 201003.010.8 5.0 4.0
Track history (hours):
 
Tides and Currents Weather Stations Pressure Air Temp Water Temp Dewpoint Dewpoint Depression Visibility Wind Speed Wind Dir Waves Ship Positions

Hyundai Hongkong

Last reported at 2018-Feb-18 08:59 UTC. Time now 2018-Feb-18 09:11 UTC.
Position N 37°48' W 122°19'.

Length 304 m; draft 12.3 m.

Type: Cargo ship. MMSI: 212348000.

Date/timePositionNaut miles runAvg speedWind from/ knotsBaromVisibWave heightAir tempDewpointWater temp
2018-Feb-18 08:59N 37°48' W 122°19'0 0.0
2018-Feb-18 08:29N 37°48' W 122°19'0 0.0
2018-Feb-18 08:00N 37°48' W 122°19'0 0.0
2018-Feb-18 07:30N 37°48' W 122°19'0 0.0
2018-Feb-18 06:59N 37°48' W 122°19'0 0.0
2018-Feb-18 06:29N 37°48' W 122°19'0 0.0
2018-Feb-18 05:59N 37°48' W 122°19'0 0.0
2018-Feb-18 05:29N 37°48' W 122°19'0 0.0
2018-Feb-18 04:59N 37°48' W 122°19'0 0.0
2018-Feb-18 04:29N 37°48' W 122°19'0 0.0
2018-Feb-18 03:59N 37°48' W 122°19'0 0.0
2018-Feb-18 03:30N 37°48' W 122°19'0 0.0
2018-Feb-18 02:59N 37°48' W 122°19'0 0.0
2018-Feb-18 02:29N 37°48' W 122°19'0 0.0
2018-Feb-18 01:59N 37°48' W 122°19'0 0.0
2018-Feb-18 01:26N 37°48' W 122°19'0 0.0
2018-Feb-18 00:59N 37°48' W 122°19'0 0.0
2018-Feb-18 00:29N 37°48' W 122°19'0 0.0
2018-Feb-17 23:59N 37°48' W 122°19'0 0.0
2018-Feb-17 23:29N 37°48' W 122°19'0 0.0
2018-Feb-17 22:59N 37°48' W 122°19'0 0.0
2018-Feb-17 22:29N 37°48' W 122°19'0 0.0
2018-Feb-17 21:59N 37°48' W 122°19'0 0.0
2018-Feb-17 21:29N 37°48' W 122°19'0 0.0
2018-Feb-17 21:00N 37°48' W 122°19'0 0.0
2018-Feb-17 20:29N 37°48' W 122°19'0 0.0
2018-Feb-17 19:59N 37°48' W 122°19'0 0.0
2018-Feb-17 19:29N 37°48' W 122°19'0 0.0
2018-Feb-17 18:59N 37°48' W 122°19'0 0.0
2018-Feb-17 18:29N 37°48' W 122°19'0 0.0
2018-Feb-17 17:59N 37°48' W 122°19'0 0.0
2018-Feb-17 17:29N 37°48' W 122°19'0 0.0
2018-Feb-17 16:59N 37°48' W 122°19'0 0.0
2018-Feb-17 16:29N 37°48' W 122°19'0 0.0
2018-Feb-17 15:59N 37°48' W 122°19'0 0.0
2018-Feb-17 15:29N 37°48' W 122°19'0 0.0
2018-Feb-17 14:59N 37°48' W 122°19'0 0.0
2018-Feb-17 14:29N 37°48' W 122°19'0 0.0
2018-Feb-17 14:00N 37°48' W 122°19'2 3.6
2018-Feb-17 13:30N 37°48' W 122°22'611.9
2018-Feb-17 13:01N 37°49' W 122°29'815.1
2018-Feb-17 12:31N 37°46' W 122°38'5 9.7
2018-Feb-17 12:00N 37°41' W 122°40'510.1
2018-Feb-17 11:30N 37°36' W 122°40'611.0
2018-Feb-17 11:00N 37°31' W 122°39'816.3
2018-Feb-17 10:30N 37°23' W 122°39'917.8
2018-Feb-17 10:00N 37°14' W 122°40'917.5
2018-Feb-17 09:30N 37°05' W 122°38'918.1
2018-Feb-17 09:00N 36°57' W 122°34'918.3
2018-Feb-17 08:30N 36°48' W 122°30'918.2
2018-Feb-17 08:00N 36°40' W 122°25'918.2
2018-Feb-17 07:30N 36°32' W 122°21'917.9
2018-Feb-17 07:00N 36°23' W 122°16'917.9
2018-Feb-17 06:30N 36°15' W 122°12'917.9
2018-Feb-17 06:00N 36°07' W 122°07'918.0
2018-Feb-17 05:30N 35°59' W 122°01'918.0
2018-Feb-17 05:00N 35°52' W 121°55'1417.8
2018-Feb-17 04:14N 35°40' W 121°47'1518.2
2018-Feb-17 03:23N 35°27' W 121°37'718.0
2018-Feb-17 03:00N 35°21' W 121°32'917.6
2018-Feb-17 02:30N 35°14' W 121°27'917.6
2018-Feb-17 02:00N 35°06' W 121°21'917.5
2018-Feb-17 01:30N 34°59' W 121°16'917.8
2018-Feb-17 01:00N 34°51' W 121°10'917.9
2018-Feb-17 00:30N 34°43' W 121°04'918.0
2018-Feb-17 00:00N 34°36' W 120°58'917.7
2018-Feb-16 23:30N 34°28' W 120°53'917.3
2018-Feb-16 22:59N 34°24' W 120°43'917.7
2018-Feb-16 22:29N 34°22' W 120°33'918.0
2018-Feb-16 21:59N 34°20' W 120°22'918.0
2018-Feb-16 21:29N 34°17' W 120°12'918.7
2018-Feb-16 21:00N 34°15' W 120°01'1018.6
2018-Feb-16 20:29N 34°12' W 119°50'1018.7
2018-Feb-16 19:59N 34°10' W 119°39'919.1
2018-Feb-16 19:29N 34°07' W 119°28'1019.4
2018-Feb-16 18:57N 34°04' W 119°16'919.0
2018-Feb-16 18:30N 33°60' W 119°07'713.8
2018-Feb-16 17:59N 33°56' W 118°60'611.6
2018-Feb-16 17:30N 33°54' W 118°54'611.5
2018-Feb-16 17:00N 33°51' W 118°48'611.3
2018-Feb-16 16:30N 33°48' W 118°42'611.4
2018-Feb-16 15:59N 33°45' W 118°36'511.2
2018-Feb-16 15:30N 33°42' W 118°30'611.2
2018-Feb-16 15:00N 33°40' W 118°24'611.5
2018-Feb-16 14:30N 33°39' W 118°17'4 8.5
2018-Feb-16 13:59N 33°43' W 118°15'1 2.8
2018-Feb-16 13:30N 33°44' W 118°16'0 0.6
2018-Feb-16 12:58N 33°44' W 118°15'0 0.0
2018-Feb-16 12:28N 33°44' W 118°15'0 0.0
2018-Feb-16 11:58N 33°44' W 118°15'0 0.0
2018-Feb-16 11:28N 33°44' W 118°15'0 0.0
2018-Feb-16 10:55N 33°44' W 118°15'0 0.0
2018-Feb-16 10:28N 33°44' W 118°15'0 0.0
2018-Feb-16 09:58N 33°44' W 118°15'0 0.0
2018-Feb-16 09:28N 33°44' W 118°15'0 0.0
2018-Feb-16 08:58N 33°44' W 118°15'0 0.0
2018-Feb-16 08:28N 33°44' W 118°15'0 0.0
2018-Feb-16 07:58N 33°44' W 118°15'0 0.0
2018-Feb-16 07:28N 33°44' W 118°15'0 0.0
2018-Feb-16 06:58N 33°44' W 118°15'0 0.0
2018-Feb-16 06:28N 33°44' W 118°15'0 0.0
2018-Feb-16 05:58N 33°44' W 118°15'0 0.0
2018-Feb-16 05:28N 33°44' W 118°15'0 0.0
2018-Feb-16 04:55N 33°44' W 118°15'0 0.0
2018-Feb-16 04:28N 33°44' W 118°15'0 0.0
2018-Feb-16 03:58N 33°44' W 118°15'0 0.0
2018-Feb-16 03:28N 33°44' W 118°15'0 0.0
2018-Feb-16 02:58N 33°44' W 118°15'0 0.0
2018-Feb-16 02:28N 33°44' W 118°15'0 0.0
2018-Feb-16 01:58N 33°44' W 118°15'0 0.0
2018-Feb-16 01:28N 33°44' W 118°15'0 0.0
2018-Feb-16 00:58N 33°44' W 118°15'0 0.0
2018-Feb-16 00:28N 33°44' W 118°15'0 0.0
2018-Feb-15 23:58N 33°44' W 118°15'0 0.0
2018-Feb-15 23:28N 33°44' W 118°15'0 0.0
2018-Feb-15 22:58N 33°44' W 118°15'0 0.0
2018-Feb-15 22:28N 33°44' W 118°15'0 0.0
2018-Feb-15 21:58N 33°44' W 118°15'0 0.0
2018-Feb-15 21:28N 33°44' W 118°15'0 0.0
2018-Feb-15 20:58N 33°44' W 118°15'0 0.0
2018-Feb-15 20:28N 33°44' W 118°15'0 0.0
2018-Feb-15 19:55N 33°44' W 118°15'0 0.0
2018-Feb-15 19:28N 33°44' W 118°15'0 0.0
2018-Feb-15 18:58N 33°44' W 118°15'0 0.0
2018-Feb-15 18:28N 33°44' W 118°15'0 0.0
2018-Feb-15 17:58N 33°44' W 118°15'0 0.0
2018-Feb-15 17:28N 33°44' W 118°15'0 0.0
2018-Feb-15 16:58N 33°44' W 118°15'0 0.0
2018-Feb-15 16:25N 33°44' W 118°15'0 0.0
2018-Feb-15 15:55N 33°44' W 118°15'0 0.0
2018-Feb-15 15:28N 33°44' W 118°15'0 0.0
2018-Feb-15 14:58N 33°44' W 118°15'0 0.0
2018-Feb-15 14:28N 33°44' W 118°15'0 0.0
2018-Feb-15 13:58N 33°44' W 118°15'0 0.0
2018-Feb-15 13:28N 33°44' W 118°15'0 0.0
2018-Feb-15 12:58N 33°44' W 118°15'0 0.0
2018-Feb-15 12:28N 33°44' W 118°15'0 0.0
2018-Feb-15 11:52N 33°44' W 118°15'0 0.0
2018-Feb-15 11:28N 33°44' W 118°15'0 0.0
2018-Feb-15 10:58N 33°44' W 118°15'0 0.0
2018-Feb-15 10:28N 33°44' W 118°15'0 0.0
2018-Feb-15 09:58N 33°44' W 118°15'0 0.0
2018-Feb-15 09:28N 33°44' W 118°15'0 0.0
2018-Feb-15 08:58N 33°44' W 118°15'0 0.0
2018-Feb-15 08:28N 33°44' W 118°15'0 0.0
2018-Feb-15 07:55N 33°44' W 118°15'0 0.0
2018-Feb-15 07:28N 33°44' W 118°15'0 0.0
2018-Feb-15 06:58N 33°44' W 118°15'0 0.0
2018-Feb-15 06:25N 33°44' W 118°15'0 0.0
2018-Feb-15 05:58N 33°44' W 118°15'0 0.0
2018-Feb-15 05:28N 33°44' W 118°15'0 0.0
2018-Feb-15 04:55N 33°44' W 118°15'0 0.0
2018-Feb-15 04:28N 33°44' W 118°15'0 0.0
2018-Feb-15 03:58N 33°44' W 118°15'0 0.0
2018-Feb-15 03:25N 33°44' W 118°15'0 0.0
2018-Feb-15 02:58N 33°44' W 118°15'0 0.0
2018-Feb-15 02:28N 33°44' W 118°15'0 0.0
2018-Feb-15 01:58N 33°44' W 118°15'0 0.0
2018-Feb-15 01:25N 33°44' W 118°15'0 0.0
2018-Feb-15 00:58N 33°44' W 118°15'0 0.0
2018-Feb-15 00:28N 33°44' W 118°15'0 0.0
2018-Feb-14 23:58N 33°44' W 118°15'0 0.0
2018-Feb-14 23:25N 33°44' W 118°15'0 0.0
2018-Feb-14 22:58N 33°44' W 118°15'0 0.0
2018-Feb-14 22:28N 33°44' W 118°15'0 0.0
2018-Feb-14 21:58N 33°44' W 118°15'0 0.0
2018-Feb-14 21:28N 33°44' W 118°15'0 0.0
2018-Feb-14 20:58N 33°44' W 118°15'0 0.0
2018-Feb-14 20:28N 33°44' W 118°15'0 0.0
2018-Feb-14 19:58N 33°44' W 118°15'0 0.0
2018-Feb-14 19:28N 33°44' W 118°15'0 0.0
2018-Feb-14 18:58N 33°44' W 118°15'0 0.0
2018-Feb-14 18:28N 33°44' W 118°15'0 0.0
2018-Feb-14 17:55N 33°44' W 118°15'0 0.0
2018-Feb-14 17:28N 33°44' W 118°15'0 0.0
2018-Feb-14 16:58N 33°44' W 118°15'0 0.0
2018-Feb-14 16:28N 33°44' W 118°15'0 0.0
2018-Feb-14 15:58N 33°44' W 118°15'0 0.0
2018-Feb-14 15:28N 33°44' W 118°15'0 0.0
2018-Feb-14 14:58N 33°44' W 118°15'0 0.0
2018-Feb-14 14:28N 33°44' W 118°15'0 0.0
2018-Feb-14 13:58N 33°44' W 118°15'0 0.0
2018-Feb-14 13:28N 33°44' W 118°15'0 0.0
2018-Feb-14 12:58N 33°44' W 118°15'0 0.1
2018-Feb-14 12:28N 33°44' W 118°15'0 0.1
2018-Feb-14 11:58N 33°44' W 118°15'0 0.0
2018-Feb-14 11:28N 33°44' W 118°15'0 0.0
2018-Feb-14 10:58N 33°44' W 118°15'0 0.0
2018-Feb-14 10:28N 33°44' W 118°15'0 0.0
2018-Feb-14 09:58N 33°44' W 118°15'0 0.0
2018-Feb-14 09:28N 33°44' W 118°15'0 0.0
2018-Feb-14 08:58N 33°44' W 118°15'0 0.0
2018-Feb-14 08:28N 33°44' W 118°15'0 0.0
2018-Feb-14 07:58N 33°44' W 118°15'0 0.0
2018-Feb-14 07:28N 33°44' W 118°15'0 0.0
2018-Feb-14 06:58N 33°44' W 118°15'0 0.0
2018-Feb-14 06:28N 33°44' W 118°15'0 0.0
2018-Feb-14 05:58N 33°44' W 118°15'0 0.0
2018-Feb-14 05:25N 33°44' W 118°15'0 0.0
2018-Feb-14 04:58N 33°44' W 118°15'0 0.0
2018-Feb-14 04:28N 33°44' W 118°15'0 0.0
2018-Feb-14 03:58N 33°44' W 118°15'0 0.0
2018-Feb-14 03:28N 33°44' W 118°15'0 0.1
2018-Feb-14 02:58N 33°44' W 118°15'0 0.1
2018-Feb-14 02:28N 33°44' W 118°15'0 0.0
2018-Feb-14 01:58N 33°44' W 118°15'0 0.0
2018-Feb-14 01:28N 33°44' W 118°15'0 0.0
2018-Feb-14 00:58N 33°44' W 118°15'0 0.0
2018-Feb-14 00:25N 33°44' W 118°15'0 0.0
2018-Feb-13 23:58N 33°44' W 118°15'0 0.0
2018-Feb-13 23:28N 33°44' W 118°15'0 0.0
2018-Feb-13 22:58N 33°44' W 118°15'0 0.0
2018-Feb-13 22:28N 33°44' W 118°15'0 0.0
2018-Feb-13 21:58N 33°44' W 118°15'0 0.0
2018-Feb-13 21:28N 33°44' W 118°15'0 0.0
2018-Feb-13 20:55N 33°44' W 118°15'0 0.0
2018-Feb-13 20:28N 33°44' W 118°15'0 0.0
2018-Feb-13 19:58N 33°44' W 118°15'0 0.0
2018-Feb-13 19:28N 33°44' W 118°15'0 0.0
2018-Feb-13 18:58N 33°44' W 118°15'0 0.0
2018-Feb-13 18:28N 33°44' W 118°15'0 0.0
2018-Feb-13 17:58N 33°44' W 118°15'0 0.0
2018-Feb-13 17:28N 33°44' W 118°15'0 0.0
2018-Feb-13 16:58N 33°44' W 118°15'0 0.0
2018-Feb-13 16:25N 33°44' W 118°15'0 0.0
2018-Feb-13 15:58N 33°44' W 118°15'0 0.0
2018-Feb-13 15:28N 33°44' W 118°15'0 0.1
2018-Feb-13 14:58N 33°44' W 118°15'0 0.1
2018-Feb-13 14:28N 33°44' W 118°15'0 0.0
2018-Feb-13 13:58N 33°44' W 118°15'0 0.0
2018-Feb-13 13:28N 33°44' W 118°15'0 0.0
2018-Feb-13 12:58N 33°44' W 118°15'0 0.1
2018-Feb-13 12:30N 33°44' W 118°15'3 6.3
2018-Feb-13 12:00N 33°41' W 118°14'3 7.0
2018-Feb-13 11:30N 33°37' W 118°13'4 7.7
2018-Feb-13 11:00N 33°36' W 118°17'1110.8
2018-Feb-13 10:00N 33°40' W 118°29'611.0
2018-Feb-13 09:30N 33°43' W 118°35'611.3
2018-Feb-13 09:00N 33°46' W 118°41'611.3
2018-Feb-13 08:30N 33°49' W 118°47'611.2
2018-Feb-13 08:00N 33°51' W 118°53'611.2
2018-Feb-13 07:30N 33°54' W 118°59'611.2
2018-Feb-13 07:00N 33°57' W 119°04'611.0
2018-Feb-13 06:30N 33°59' W 119°10'611.1
2018-Feb-13 05:58N 34°02' W 119°17'611.2
2018-Feb-13 05:29N 34°03' W 119°23'611.4
2018-Feb-13 05:00N 34°05' W 119°30'1011.4
2018-Feb-13 04:06N 34°08' W 119°41'211.7
2018-Feb-13 03:55N 34°08' W 119°44'511.9
2018-Feb-13 03:28N 34°10' W 119°50'611.6
2018-Feb-13 02:58N 34°11' W 119°57'612.0
2018-Feb-13 02:30N 34°12' W 120°04'713.5
2018-Feb-13 01:59N 34°14' W 120°12'815.9
2018-Feb-13 01:28N 34°17' W 120°21'816.2
2018-Feb-13 01:00N 34°19' W 120°30'816.0
2018-Feb-13 00:30N 34°21' W 120°39'815.7
2018-Feb-13 00:00N 34°23' W 120°48'816.0
2018-Feb-12 23:30N 34°25' W 120°58'816.2
2018-Feb-12 23:01N 34°26' W 121°07'815.2
2018-Feb-12 22:30N 34°26' W 121°17'1 2.3
2018-Feb-12 22:01N 34°25' W 121°18'612.8
2018-Feb-12 21:30N 34°26' W 121°26'1020.1
2018-Feb-12 21:01N 34°26' W 121°38'1020.3
2018-Feb-12 20:31N 34°26' W 121°50'  
2018-Feb-09 21:00N 45°12' W 150°12'46320.1 320 / 161019.0 9.0 8.0
2018-Feb-08 22:00N 47°24' W 160°54'503503.0 320 / 161011.0 5.4 6.0 5.0
2018-Feb-08 21:00N 48°36' W 173°18'   230 / 201003.010.8 5.0 4.0

Dump ship's entire track history